sensor_id;sensor_type;location;lat;lon;timestamp;temperature;humidity
23069;DHT22;11702;50.856;4.348;2023-04-15T00:00:02;11.60;99.90
23069;DHT22;11702;50.856;4.348;2023-04-15T00:02:27;11.60;99.90
23069;DHT22;11702;50.856;4.348;2023-04-15T00:04:54;11.60;99.90
23069;DHT22;11702;50.856;4.348;2023-04-15T00:07:19;11.50;99.90
23069;DHT22;11702;50.856;4.348;2023-04-15T00:09:45;11.60;99.90
23069;DHT22;11702;50.856;4.348;2023-04-15T00:12:11;11.50;99.90
23069;DHT22;11702;50.856;4.348;2023-04-15T00:14:37;11.30;99.90
23069;DHT22;11702;50.856;4.348;2023-04-15T00:17:03;11.20;99.90
23069;DHT22;11702;50.856;4.348;2023-04-15T00:19:30;11.00;99.90
23069;DHT22;11702;50.856;4.348;2023-04-15T00:21:56;10.90;99.90
23069;DHT22;11702;50.856;4.348;2023-04-15T00:24:22;10.70;99.90
23069;DHT22;11702;50.856;4.348;2023-04-15T00:26:48;10.70;99.90
23069;DHT22;11702;50.856;4.348;2023-04-15T00:29:13;10.70;99.90
23069;DHT22;11702;50.856;4.348;2023-04-15T00:31:39;10.70;99.90
23069;DHT22;11702;50.856;4.348;2023-04-15T00:34:05;10.70;99.90
23069;DHT22;11702;50.856;4.348;2023-04-15T00:36:31;10.60;99.90
23069;DHT22;11702;50.856;4.348;2023-04-15T00:38:58;10.50;99.90
23069;DHT22;11702;50.856;4.348;2023-04-15T09:22:38;13.00;99.90
23069;DHT22;11702;50.856;4.348;2023-04-15T09:25:33;13.30;99.90
23069;DHT22;11702;50.856;4.348;2023-04-15T09:28:01;13.30;99.90
23069;DHT22;11702;50.856;4.348;2023-04-15T09:30:32;13.30;99.90
23069;DHT22;11702;50.856;4.348;2023-04-15T09:33:02;13.50;99.90
23069;DHT22;11702;50.856;4.348;2023-04-15T09:35:35;13.60;99.90
23069;DHT22;11702;50.856;4.348;2023-04-15T09:38:24;13.60;99.90
23069;DHT22;11702;50.856;4.348;2023-04-15T09:40:57;13.70;99.90
23069;DHT22;11702;50.856;4.348;2023-04-15T09:43:38;13.80;99.90
23069;DHT22;11702;50.856;4.348;2023-04-15T09:46:04;13.90;99.90
23069;DHT22;11702;50.856;4.348;2023-04-15T09:48:33;13.80;99.90
23069;DHT22;11702;50.856;4.348;2023-04-15T09:51:00;13.80;99.90
23069;DHT22;11702;50.856;4.348;2023-04-15T09:53:26;13.90;99.90
23069;DHT22;11702;50.856;4.348;2023-04-15T09:55:59;13.90;99.90
23069;DHT22;11702;50.856;4.348;2023-04-15T09:58:43;14.00;99.90
23069;DHT22;11702;50.856;4.348;2023-04-15T10:01:10;14.10;99.90
23069;DHT22;11702;50.856;4.348;2023-04-15T10:03:37;14.40;99.90
23069;DHT22;11702;50.856;4.348;2023-04-15T10:06:04;14.40;99.90
23069;DHT22;11702;50.856;4.348;2023-04-15T10:08:33;14.20;99.90
23069;DHT22;11702;50.856;4.348;2023-04-15T10:11:05;14.10;99.90
23069;DHT22;11702;50.856;4.348;2023-04-15T10:13:31;13.90;99.90
23069;DHT22;11702;50.856;4.348;2023-04-15T10:16:34;14.00;99.90
23069;DHT22;11702;50.856;4.348;2023-04-15T10:19:03;14.00;99.90
23069;DHT22;11702;50.856;4.348;2023-04-15T10:21:32;14.10;99.90
23069;DHT22;11702;50.856;4.348;2023-04-15T10:24:21;14.20;99.90
23069;DHT22;11702;50.856;4.348;2023-04-15T10:26:47;14.30;99.90
23069;DHT22;11702;50.856;4.348;2023-04-15T10:29:13;14.30;99.90
23069;DHT22;11702;50.856;4.348;2023-04-15T10:31:40;14.30;99.90
23069;DHT22;11702;50.856;4.348;2023-04-15T10:34:05;14.10;99.90
23069;DHT22;11702;50.856;4.348;2023-04-15T10:36:32;14.10;99.90
23069;DHT22;11702;50.856;4.348;2023-04-15T10:38:57;14.00;99.90
23069;DHT22;11702;50.856;4.348;2023-04-15T10:41:24;14.00;99.90
23069;DHT22;11702;50.856;4.348;2023-04-15T10:46:43;14.40;99.90
23069;DHT22;11702;50.856;4.348;2023-04-15T10:49:11;14.50;99.90
23069;DHT22;11702;50.856;4.348;2023-04-15T10:51:44;14.70;99.90
23069;DHT22;11702;50.856;4.348;2023-04-15T10:54:14;14.60;99.10
23069;DHT22;11702;50.856;4.348;2023-04-15T10:56:44;14.50;99.00
23069;DHT22;11702;50.856;4.348;2023-04-15T10:59:09;14.40;96.30
23069;DHT22;11702;50.856;4.348;2023-04-15T11:01:55;14.40;95.80
23069;DHT22;11702;50.856;4.348;2023-04-15T11:04:53;14.30;94.90
23069;DHT22;11702;50.856;4.348;2023-04-15T11:12:54;14.50;92.60
23069;DHT22;11702;50.856;4.348;2023-04-15T11:18:21;14.70;94.00
23069;DHT22;11702;50.856;4.348;2023-04-15T11:20:52;14.70;92.20
23069;DHT22;11702;50.856;4.348;2023-04-15T11:25:57;14.90;94.00
23069;DHT22;11702;50.856;4.348;2023-04-15T11:28:28;15.00;93.60
23069;DHT22;11702;50.856;4.348;2023-04-15T11:31:09;14.80;94.10
23069;DHT22;11702;50.856;4.348;2023-04-15T11:33:35;14.70;93.60
23069;DHT22;11702;50.856;4.348;2023-04-15T11:36:01;14.70;93.70
23069;DHT22;11702;50.856;4.348;2023-04-15T11:38:28;14.70;94.00
23069;DHT22;11702;50.856;4.348;2023-04-15T11:40:54;14.80;93.90
23069;DHT22;11702;50.856;4.348;2023-04-15T11:43:21;14.80;91.40
23069;DHT22;11702;50.856;4.348;2023-04-15T11:45:52;14.90;87.20
23069;DHT22;11702;50.856;4.348;2023-04-15T11:48:19;14.90;76.90
23069;DHT22;11702;50.856;4.348;2023-04-15T11:50:45;15.00;77.60
23069;DHT22;11702;50.856;4.348;2023-04-15T11:53:12;15.00;79.40
23069;DHT22;11702;50.856;4.348;2023-04-15T11:55:46;14.90;81.30
23069;DHT22;11702;50.856;4.348;2023-04-15T11:58:17;14.80;85.70
23069;DHT22;11702;50.856;4.348;2023-04-15T12:00:48;14.80;89.60
23069;DHT22;11702;50.856;4.348;2023-04-15T12:03:29;14.90;89.50
23069;DHT22;11702;50.856;4.348;2023-04-15T12:08:54;14.90;79.00
23069;DHT22;11702;50.856;4.348;2023-04-15T12:11:27;14.90;80.00
23069;DHT22;11702;50.856;4.348;2023-04-15T12:14:06;15.10;78.10
23069;DHT22;11702;50.856;4.348;2023-04-15T12:16:44;15.10;76.80
23069;DHT22;11702;50.856;4.348;2023-04-15T12:19:12;15.10;78.70
23069;DHT22;11702;50.856;4.348;2023-04-15T12:21:39;15.00;80.10
23069;DHT22;11702;50.856;4.348;2023-04-15T12:24:08;15.00;82.50
23069;DHT22;11702;50.856;4.348;2023-04-15T12:29:05;15.20;82.90
23069;DHT22;11702;50.856;4.348;2023-04-15T12:31:35;15.30;83.00
23069;DHT22;11702;50.856;4.348;2023-04-15T12:34:02;15.20;81.60
23069;DHT22;11702;50.856;4.348;2023-04-15T12:36:29;15.00;81.60
23069;DHT22;11702;50.856;4.348;2023-04-15T12:39:06;15.10;82.40
23069;DHT22;11702;50.856;4.348;2023-04-15T12:41:35;15.10;77.40
